Time;durP1;ratioP1;P1;durP2;ratioP2;P2;SDS_P1;SDS_P2;PMS_P1;PMS_P2;Temp;Humidity;BMP_temperature;BMP_pressure;BME280_temperature;BME280_humidity;BME280_pressure;Samples;Min_cycle;Max_cycle;Signal;HPM_P1;HPM_P2
2022/03/13 00:00:46;;;;;;;24.67;12.90;;;;;;;;;;5008061;28;20495;-74
2022/03/13 00:03:14;;;;;;;21.95;12.98;;;;;;;;;;5008210;28;20054;-75
2022/03/13 00:05:41;;;;;;;24.38;13.90;;;;;;;;;;5008202;28;20115;-76
2022/03/13 00:08:19;;;;;;;23.05;14.35;;;;;;;;;;5008061;28;20054;-76
2022/03/13 00:10:50;;;;;;;21.77;14.15;;;;;;;;;;5009195;28;20058;-76
2022/03/13 00:13:19;;;;;;;21.88;13.77;;;;;;;;;;5008645;28;20058;-75
2022/03/13 00:15:45;;;;;;;24.10;15.57;;;;;;;;;;5007371;28;20121;-75
2022/03/13 00:18:11;;;;;;;20.90;13.38;;;;;;;;;;5007904;28;20072;-76
2022/03/13 00:20:38;;;;;;;25.38;14.18;;;;;;;;;;5008227;28;20049;-77
2022/03/13 00:23:05;;;;;;;23.88;14.70;;;;;;;;;;5009110;28;20045;-76
2022/03/13 00:25:31;;;;;;;26.38;14.27;;;;;;;;;;4992766;28;20128;-77
2022/03/13 00:27:57;;;;;;;21.30;13.23;;;;;;;;;;5007829;28;20098;-77
2022/03/13 00:30:23;;;;;;;23.25;13.68;;;;;;;;;;5008492;28;20046;-76
2022/03/13 00:32:50;;;;;;;22.35;13.73;;;;;;;;;;5007680;28;20042;-76
2022/03/13 00:35:17;;;;;;;21.48;14.05;;;;;;;;;;5007495;28;20046;-77
2022/03/13 00:37:43;;;;;;;23.50;13.90;;;;;;;;;;4991049;28;20053;-76
2022/03/13 00:40:10;;;;;;;21.52;13.60;;;;;;;;;;5007802;28;20510;-77
2022/03/13 00:42:37;;;;;;;22.85;14.05;;;;;;;;;;5008211;28;20060;-77
2022/03/13 00:45:03;;;;;;;22.65;14.25;;;;;;;;;;5007947;28;20137;-76
2022/03/13 00:47:29;;;;;;;22.92;14.73;;;;;;;;;;4990812;28;20082;-76
2022/03/13 00:49:55;;;;;;;21.65;13.95;;;;;;;;;;5007443;28;20125;-76
2022/03/13 00:52:21;;;;;;;23.67;14.40;;;;;;;;;;5007211;28;20133;-75
2022/03/13 00:54:48;;;;;;;25.70;14.68;;;;;;;;;;4990951;28;20042;-76
2022/03/13 00:57:14;;;;;;;22.35;13.95;;;;;;;;;;4990029;28;20332;-75
2022/03/13 00:59:40;;;;;;;23.92;14.20;;;;;;;;;;5006412;28;20503;-75
2022/03/13 01:02:06;;;;;;;23.45;14.05;;;;;;;;;;5007275;28;20042;-75
2022/03/13 01:04:32;;;;;;;22.58;14.05;;;;;;;;;;4990746;28;20038;-75
2022/03/13 01:06:59;;;;;;;25.55;14.05;;;;;;;;;;5006809;28;20042;-75
2022/03/13 01:09:25;;;;;;;24.73;14.27;;;;;;;;;;5006416;28;20042;-74
2022/03/13 01:11:51;;;;;;;21.25;12.70;;;;;;;;;;5007877;28;20106;-75
2022/03/13 01:14:19;;;;;;;21.38;13.73;;;;;;;;;;5007006;28;20050;-75
2022/03/13 01:16:45;;;;;;;22.83;14.15;;;;;;;;;;5006564;28;20124;-76
2022/03/13 01:19:11;;;;;;;21.92;14.05;;;;;;;;;;5007084;28;20049;-76
2022/03/13 01:21:37;;;;;;;22.98;13.63;;;;;;;;;;4990606;28;20054;-76
2022/03/13 01:24:03;;;;;;;20.27;12.27;;;;;;;;;;5006970;28;20472;-74
2022/03/13 01:26:36;;;;;;;22.38;13.00;;;;;;;;;;4990639;28;20125;-75
2022/03/13 01:29:03;;;;;;;21.92;13.73;;;;;;;;;;5006635;28;20045;-76
2022/03/13 01:31:31;;;;;;;24.23;14.27;;;;;;;;;;5008087;28;20483;-77
2022/03/13 01:33:58;;;;;;;19.02;13.32;;;;;;;;;;5007709;28;20045;-76
2022/03/13 01:36:25;;;;;;;23.58;14.32;;;;;;;;;;5007129;28;20044;-76
2022/03/13 01:38:55;;;;;;;23.15;14.35;;;;;;;;;;5006411;28;20034;-76
2022/03/13 01:41:22;;;;;;;23.20;13.85;;;;;;;;;;5006579;28;20041;-76
2022/03/13 01:43:48;;;;;;;22.73;13.20;;;;;;;;;;5006386;28;20053;-77
2022/03/13 01:46:15;;;;;;;23.17;14.40;;;;;;;;;;5006548;28;20118;-77
2022/03/13 01:48:53;;;;;;;22.63;13.50;;;;;;;;;;5005932;28;20060;-76
2022/03/13 01:51:19;;;;;;;24.77;13.77;;;;;;;;;;5006616;28;20065;-78
2022/03/13 01:53:46;;;;;;;22.50;13.85;;;;;;;;;;5007613;28;20045;-76
2022/03/13 01:56:12;;;;;;;22.55;13.48;;;;;;;;;;5006393;28;20044;-76
2022/03/13 01:58:38;;;;;;;24.05;12.98;;;;;;;;;;5006777;28;20483;-76
2022/03/13 02:01:04;;;;;;;20.38;13.40;;;;;;;;;;5006399;28;20046;-78
2022/03/13 02:03:30;;;;;;;23.30;13.63;;;;;;;;;;5008148;28;20364;-78
2022/03/13 02:05:57;;;;;;;20.90;13.45;;;;;;;;;;5006392;28;20053;-78
2022/03/13 02:08:24;;;;;;;21.75;14.02;;;;;;;;;;5007615;28;20155;-78
2022/03/13 02:10:50;;;;;;;23.30;13.75;;;;;;;;;;4993451;28;20394;-77
2022/03/13 02:13:18;;;;;;;22.08;13.18;;;;;;;;;;5010681;28;20081;-78
2022/03/13 02:15:44;;;;;;;23.13;13.50;;;;;;;;;;5008940;28;20065;-78
2022/03/13 02:18:10;;;;;;;22.92;13.95;;;;;;;;;;4993709;28;20486;-77
2022/03/13 02:20:41;;;;;;;23.98;14.32;;;;;;;;;;5009587;28;20060;-78
2022/03/13 02:23:14;;;;;;;23.02;13.73;;;;;;;;;;5009858;28;20494;-77
2022/03/13 02:25:40;;;;;;;23.98;13.60;;;;;;;;;;5009145;28;20576;-77
2022/03/13 02:28:06;;;;;;;22.83;13.80;;;;;;;;;;5010740;28;20042;-76
2022/03/13 02:30:34;;;;;;;22.55;14.48;;;;;;;;;;5009674;28;20056;-74
2022/03/13 02:33:00;;;;;;;23.95;14.48;;;;;;;;;;5010338;28;20049;-77
2022/03/13 02:35:29;;;;;;;23.85;13.93;;;;;;;;;;5009839;28;20402;-76
2022/03/13 02:37:56;;;;;;;21.67;13.05;;;;;;;;;;5009231;28;20125;-76
2022/03/13 02:40:25;;;;;;;21.75;13.82;;;;;;;;;;5010847;28;20041;-76
2022/03/13 02:42:52;;;;;;;23.45;14.00;;;;;;;;;;4978519;28;20491;-77
2022/03/13 02:45:35;;;;;;;24.77;14.10;;;;;;;;;;4973756;28;20488;-77
2022/03/13 02:48:02;;;;;;;24.73;13.63;;;;;;;;;;4953961;28;20062;-77
2022/03/13 02:50:28;;;;;;;23.02;13.45;;;;;;;;;;4971485;28;20039;-75
2022/03/13 02:52:54;;;;;;;23.58;14.23;;;;;;;;;;4989397;28;20046;-76
2022/03/13 02:55:20;;;;;;;21.50;13.27;;;;;;;;;;4990919;28;20528;-75
2022/03/13 02:57:47;;;;;;;23.55;13.70;;;;;;;;;;4990348;28;20682;-76
2022/03/13 03:00:15;;;;;;;23.35;13.75;;;;;;;;;;4989579;28;20078;-76
2022/03/13 03:02:41;;;;;;;22.10;13.88;;;;;;;;;;4988220;28;20065;-76
2022/03/13 03:05:08;;;;;;;21.05;13.02;;;;;;;;;;4988514;28;20046;-75
2022/03/13 03:07:34;;;;;;;24.65;13.70;;;;;;;;;;4990388;28;20384;-75
2022/03/13 03:10:00;;;;;;;22.20;13.93;;;;;;;;;;4990235;28;20095;-76
2022/03/13 03:12:27;;;;;;;23.98;14.05;;;;;;;;;;4989267;28;20047;-76
2022/03/13 03:14:54;;;;;;;22.85;14.25;;;;;;;;;;4988782;28;20050;-76
2022/03/13 03:17:20;;;;;;;21.00;13.30;;;;;;;;;;4989600;28;20058;-76
2022/03/13 03:19:46;;;;;;;23.85;13.95;;;;;;;;;;4988043;28;20399;-77
2022/03/13 03:22:13;;;;;;;22.58;14.13;;;;;;;;;;4989502;28;20046;-77
2022/03/13 03:24:40;;;;;;;20.67;13.10;;;;;;;;;;4989047;28;20076;-76
2022/03/13 03:27:06;;;;;;;23.42;13.93;;;;;;;;;;4989137;28;20396;-75
2022/03/13 03:29:32;;;;;;;22.42;13.85;;;;;;;;;;4989009;28;20433;-76
2022/03/13 03:31:58;;;;;;;23.33;13.32;;;;;;;;;;4990008;28;20099;-75
2022/03/13 03:34:26;;;;;;;24.23;13.77;;;;;;;;;;4972840;28;20080;-76
2022/03/13 03:36:53;;;;;;;23.13;12.82;;;;;;;;;;4988944;28;20050;-74
2022/03/13 03:39:20;;;;;;;21.85;13.15;;;;;;;;;;4988505;28;20046;-74
2022/03/13 03:41:48;;;;;;;20.67;12.55;;;;;;;;;;4972428;28;20103;-75
2022/03/13 03:44:14;;;;;;;20.38;12.55;;;;;;;;;;4989956;28;20565;-75
2022/03/13 03:46:42;;;;;;;23.13;13.48;;;;;;;;;;5007228;28;20507;-75
2022/03/13 03:49:09;;;;;;;23.20;13.13;;;;;;;;;;4995301;28;20049;-76
2022/03/13 03:51:36;;;;;;;21.33;13.20;;;;;;;;;;4995362;28;20080;-75
2022/03/13 03:54:03;;;;;;;20.63;12.90;;;;;;;;;;5029416;28;20486;-75
2022/03/13 03:56:29;;;;;;;22.48;12.60;;;;;;;;;;5011499;28;20037;-75
2022/03/13 03:58:55;;;;;;;20.45;13.02;;;;;;;;;;5011121;28;20049;-75
2022/03/13 04:01:21;;;;;;;22.60;13.25;;;;;;;;;;4995219;28;20076;-75
2022/03/13 04:03:47;;;;;;;21.33;13.23;;;;;;;;;;4995200;28;20444;-76
2022/03/13 04:06:14;;;;;;;21.50;12.68;;;;;;;;;;5028787;28;20077;-75
2022/03/13 04:08:40;;;;;;;22.55;13.63;;;;;;;;;;5028855;28;20128;-76
2022/03/13 04:11:08;;;;;;;22.27;12.80;;;;;;;;;;5028857;28;20046;-75
2022/03/13 04:13:37;;;;;;;22.35;13.60;;;;;;;;;;5028639;28;20049;-76
2022/03/13 04:16:04;;;;;;;21.35;13.60;;;;;;;;;;4994878;28;20052;-75
2022/03/13 04:18:30;;;;;;;26.38;14.13;;;;;;;;;;5011169;28;20054;-75
2022/03/13 04:20:56;;;;;;;23.70;14.27;;;;;;;;;;5028475;28;20037;-75
2022/03/13 04:23:22;;;;;;;23.23;13.85;;;;;;;;;;5010848;28;20151;-76
2022/03/13 04:25:49;;;;;;;22.75;14.18;;;;;;;;;;5028642;28;20136;-76
2022/03/13 04:28:17;;;;;;;26.35;14.43;;;;;;;;;;5010828;28;20038;-74
2022/03/13 04:30:44;;;;;;;23.05;14.00;;;;;;;;;;5010445;28;20060;-76
2022/03/13 04:33:10;;;;;;;21.58;13.73;;;;;;;;;;5011178;28;20037;-75
2022/03/13 04:35:36;;;;;;;23.80;13.68;;;;;;;;;;5010738;28;20044;-75
2022/03/13 04:38:02;;;;;;;22.50;13.82;;;;;;;;;;5027853;28;20037;-76
2022/03/13 04:40:28;;;;;;;22.75;13.48;;;;;;;;;;5010521;28;20041;-75
2022/03/13 04:42:54;;;;;;;21.08;13.68;;;;;;;;;;4994346;28;20056;-77
2022/03/13 04:45:21;;;;;;;23.15;14.60;;;;;;;;;;4994668;28;20427;-76
2022/03/13 04:47:47;;;;;;;26.23;14.95;;;;;;;;;;5010507;28;20528;-77
2022/03/13 04:50:14;;;;;;;24.60;13.85;;;;;;;;;;5010849;28;20079;-77
2022/03/13 04:52:40;;;;;;;27.23;15.23;;;;;;;;;;5010949;28;20463;-77
2022/03/13 04:55:06;;;;;;;26.10;15.30;;;;;;;;;;5010684;28;20415;-77
2022/03/13 04:57:33;;;;;;;24.88;14.38;;;;;;;;;;5028593;28;20124;-77
2022/03/13 04:59:59;;;;;;;27.52;15.05;;;;;;;;;;5027706;28;20038;-76
2022/03/13 05:02:25;;;;;;;23.70;14.10;;;;;;;;;;5005540;28;20037;-77
2022/03/13 05:04:51;;;;;;;27.15;15.55;;;;;;;;;;5006178;28;20135;-77
2022/03/13 05:07:22;;;;;;;24.80;14.13;;;;;;;;;;5006751;28;20045;-77
2022/03/13 05:09:48;;;;;;;22.02;13.88;;;;;;;;;;4990971;28;20058;-77
2022/03/13 05:12:14;;;;;;;24.23;13.40;;;;;;;;;;5007466;28;20129;-78
2022/03/13 05:14:40;;;;;;;23.35;13.50;;;;;;;;;;5006923;28;20491;-78
2022/03/13 05:17:06;;;;;;;23.90;14.02;;;;;;;;;;5008074;28;20069;-78
2022/03/13 05:19:32;;;;;;;21.60;13.85;;;;;;;;;;5007064;28;20057;-78
2022/03/13 05:21:59;;;;;;;26.33;13.80;;;;;;;;;;5008078;28;20081;-79
2022/03/13 05:24:25;;;;;;;23.20;14.05;;;;;;;;;;5007263;28;20125;-78
2022/03/13 05:26:51;;;;;;;21.02;13.23;;;;;;;;;;4990604;28;20045;-78
2022/03/13 05:29:17;;;;;;;22.33;13.48;;;;;;;;;;5006745;28;20103;-78
2022/03/13 05:31:43;;;;;;;23.13;14.07;;;;;;;;;;5015444;28;20543;-78
2022/03/13 05:34:10;;;;;;;24.20;12.68;;;;;;;;;;5026667;28;20068;-77
2022/03/13 05:36:37;;;;;;;20.98;13.35;;;;;;;;;;5009506;28;20432;-78
2022/03/13 05:39:03;;;;;;;21.55;13.57;;;;;;;;;;5027197;28;20038;-78
2022/03/13 05:41:30;;;;;;;23.55;13.38;;;;;;;;;;5009474;28;20073;-78
2022/03/13 05:43:56;;;;;;;23.52;13.38;;;;;;;;;;5008549;28;20109;-78
2022/03/13 05:46:22;;;;;;;21.10;12.65;;;;;;;;;;4993266;28;20045;-78
2022/03/13 05:48:48;;;;;;;21.50;13.32;;;;;;;;;;5009091;28;20141;-75
2022/03/13 05:51:14;;;;;;;22.63;13.65;;;;;;;;;;4992953;28;20034;-78
2022/03/13 05:53:41;;;;;;;20.95;13.02;;;;;;;;;;5009725;28;20121;-78
2022/03/13 05:56:07;;;;;;;24.58;13.30;;;;;;;;;;5027271;28;20035;-78
2022/03/13 05:58:33;;;;;;;23.10;12.43;;;;;;;;;;5009417;28;20046;-78
2022/03/13 06:01:06;;;;;;;24.10;13.30;;;;;;;;;;5008799;28;20069;-78
2022/03/13 06:03:33;;;;;;;25.35;13.52;;;;;;;;;;5026807;28;20038;-75
2022/03/13 06:06:01;;;;;;;21.75;13.55;;;;;;;;;;4991877;28;20038;-76
2022/03/13 06:08:27;;;;;;;22.42;13.57;;;;;;;;;;4992985;28;20049;-76
2022/03/13 06:10:53;;;;;;;26.52;14.10;;;;;;;;;;5009085;28;20124;-76
2022/03/13 06:13:22;;;;;;;23.67;13.00;;;;;;;;;;4992946;28;20029;-76
2022/03/13 06:15:49;;;;;;;21.17;12.90;;;;;;;;;;4992617;28;20064;-78
2022/03/13 06:18:15;;;;;;;22.10;13.30;;;;;;;;;;5009211;28;20046;-78
2022/03/13 06:20:41;;;;;;;23.50;13.10;;;;;;;;;;5008873;28;20110;-77
2022/03/13 06:23:09;;;;;;;24.80;13.25;;;;;;;;;;5026692;28;20508;-78
2022/03/13 06:25:35;;;;;;;22.05;13.13;;;;;;;;;;5026243;28;20034;-78
2022/03/13 06:28:02;;;;;;;20.98;13.00;;;;;;;;;;5008384;28;20042;-78
2022/03/13 06:30:28;;;;;;;22.98;12.85;;;;;;;;;;5008756;28;20037;-78
2022/03/13 06:32:56;;;;;;;21.65;13.02;;;;;;;;;;4975734;28;20041;-77
2022/03/13 06:35:23;;;;;;;21.58;13.27;;;;;;;;;;5009228;28;20041;-76
2022/03/13 06:37:50;;;;;;;23.13;12.65;;;;;;;;;;5026096;28;20041;-77
2022/03/13 06:40:18;;;;;;;21.23;12.80;;;;;;;;;;5008505;28;20045;-76
2022/03/13 06:42:44;;;;;;;23.00;12.90;;;;;;;;;;5008724;28;20053;-76
2022/03/13 06:45:10;;;;;;;21.35;12.43;;;;;;;;;;5008211;28;20049;-76
2022/03/13 06:47:37;;;;;;;18.63;11.00;;;;;;;;;;5025681;28;20115;-75
2022/03/13 06:50:04;;;;;;;21.55;12.90;;;;;;;;;;5025733;28;20029;-75
2022/03/13 06:52:30;;;;;;;20.17;11.88;;;;;;;;;;5017299;28;20034;-77
2022/03/13 06:54:56;;;;;;;20.48;12.15;;;;;;;;;;5009073;28;20033;-76
2022/03/13 06:57:22;;;;;;;19.25;11.32;;;;;;;;;;5011840;28;20069;-75
2022/03/13 06:59:48;;;;;;;21.35;12.73;;;;;;;;;;5011744;28;20038;-77
2022/03/13 07:02:14;;;;;;;21.95;12.88;;;;;;;;;;5011562;28;20502;-78
2022/03/13 07:04:40;;;;;;;19.77;12.07;;;;;;;;;;5029427;28;20472;-78
2022/03/13 07:07:07;;;;;;;21.75;12.93;;;;;;;;;;5028724;28;20098;-78
2022/03/13 07:09:33;;;;;;;19.45;12.90;;;;;;;;;;5029436;28;20108;-78
2022/03/13 07:11:59;;;;;;;21.13;12.60;;;;;;;;;;5028844;28;20029;-78
2022/03/13 07:14:25;;;;;;;22.00;13.43;;;;;;;;;;5011638;28;20045;-78
2022/03/13 07:16:52;;;;;;;21.67;11.85;;;;;;;;;;4994928;28;20033;-78
2022/03/13 07:19:18;;;;;;;19.08;11.75;;;;;;;;;;4995369;28;20037;-78
2022/03/13 07:21:45;;;;;;;19.35;11.90;;;;;;;;;;5029091;28;20034;-78
2022/03/13 07:24:11;;;;;;;19.95;11.90;;;;;;;;;;5011588;28;20041;-77
2022/03/13 07:26:37;;;;;;;19.70;11.05;;;;;;;;;;5011261;28;20122;-75
2022/03/13 07:29:03;;;;;;;22.63;12.57;;;;;;;;;;5011261;28;20045;-76
2022/03/13 07:31:30;;;;;;;21.08;13.23;;;;;;;;;;5008771;28;20045;-76
2022/03/13 07:33:59;;;;;;;22.33;13.05;;;;;;;;;;5010673;28;20075;-76
2022/03/13 07:36:25;;;;;;;21.27;13.15;;;;;;;;;;5011326;28;20034;-76
2022/03/13 07:38:51;;;;;;;22.77;13.10;;;;;;;;;;4994652;28;20109;-76
2022/03/13 07:41:17;;;;;;;20.95;12.32;;;;;;;;;;5028718;28;20048;-75
2022/03/13 07:43:43;;;;;;;22.05;13.15;;;;;;;;;;5011167;28;20049;-76
2022/03/13 07:46:09;;;;;;;20.05;12.20;;;;;;;;;;4994042;28;20041;-76
2022/03/13 07:48:36;;;;;;;21.77;13.05;;;;;;;;;;4994684;28;20486;-76
2022/03/13 07:51:04;;;;;;;23.33;13.80;;;;;;;;;;4994462;28;20124;-75
2022/03/13 07:53:30;;;;;;;22.17;12.95;;;;;;;;;;5028295;28;20037;-75
2022/03/13 07:55:56;;;;;;;20.23;12.15;;;;;;;;;;4993804;28;20037;-75
2022/03/13 07:58:23;;;;;;;21.75;12.55;;;;;;;;;;5010866;28;20045;-76
2022/03/13 08:00:50;;;;;;;23.40;12.23;;;;;;;;;;5010265;28;20089;-75
2022/03/13 08:03:18;;;;;;;19.00;11.98;;;;;;;;;;5010838;28;20049;-75
2022/03/13 08:05:44;;;;;;;19.15;12.25;;;;;;;;;;5027970;28;20049;-76
2022/03/13 08:08:10;;;;;;;22.38;12.32;;;;;;;;;;5010431;28;20045;-75
2022/03/13 08:10:36;;;;;;;19.35;12.05;;;;;;;;;;5010565;28;20037;-75
2022/03/13 08:13:02;;;;;;;20.60;12.73;;;;;;;;;;5010082;28;20034;-75
2022/03/13 08:15:28;;;;;;;21.48;11.80;;;;;;;;;;4994027;28;20121;-77
2022/03/13 08:17:54;;;;;;;19.05;12.40;;;;;;;;;;5027688;28;20041;-77
2022/03/13 08:20:21;;;;;;;20.98;12.18;;;;;;;;;;5010723;28;20037;-77
2022/03/13 08:22:47;;;;;;;23.88;13.20;;;;;;;;;;5010334;28;20402;-77
2022/03/13 08:25:18;;;;;;;21.85;12.55;;;;;;;;;;5009948;28;20041;-77
2022/03/13 08:27:44;;;;;;;21.88;13.05;;;;;;;;;;5010154;28;20050;-77
2022/03/13 08:30:11;;;;;;;23.05;12.15;;;;;;;;;;5010532;28;20083;-77
2022/03/13 08:32:38;;;;;;;21.45;12.48;;;;;;;;;;5028285;28;20045;-77
2022/03/13 08:35:05;;;;;;;21.20;12.43;;;;;;;;;;5027707;28;20045;-75
2022/03/13 08:37:31;;;;;;;19.60;12.13;;;;;;;;;;5010563;28;20436;-75
2022/03/13 08:39:57;;;;;;;18.70;12.65;;;;;;;;;;5010034;28;20056;-75
2022/03/13 08:42:23;;;;;;;19.48;11.93;;;;;;;;;;5010142;28;20052;-78
2022/03/13 08:44:49;;;;;;;18.00;10.82;;;;;;;;;;5009763;28;20754;-76
2022/03/13 08:47:15;;;;;;;22.42;12.65;;;;;;;;;;4977272;28;20518;-74
2022/03/13 08:49:41;;;;;;;19.95;11.65;;;;;;;;;;5027125;28;20060;-75
2022/03/13 08:52:08;;;;;;;19.48;11.23;;;;;;;;;;5009629;28;20083;-76
2022/03/13 08:54:34;;;;;;;17.55;11.73;;;;;;;;;;5027766;28;20048;-77
2022/03/13 08:57:01;;;;;;;17.67;11.38;;;;;;;;;;5009854;28;20041;-77
2022/03/13 08:59:30;;;;;;;22.63;12.60;;;;;;;;;;5010624;28;20098;-77
2022/03/13 09:01:56;;;;;;;19.90;12.82;;;;;;;;;;4993473;28;20042;-76
2022/03/13 09:04:22;;;;;;;20.17;12.07;;;;;;;;;;5017991;28;20095;-75
2022/03/13 09:06:49;;;;;;;19.27;11.80;;;;;;;;;;5009293;28;20459;-76
2022/03/13 09:09:15;;;;;;;19.73;12.55;;;;;;;;;;4993231;28;20044;-76
2022/03/13 09:11:42;;;;;;;20.27;12.82;;;;;;;;;;4992953;28;20037;-75
2022/03/13 09:14:08;;;;;;;19.88;11.85;;;;;;;;;;5009726;28;20414;-75
2022/03/13 09:16:37;;;;;;;18.02;12.02;;;;;;;;;;5009259;28;20368;-76
2022/03/13 09:19:03;;;;;;;17.42;11.85;;;;;;;;;;5008368;28;20038;-77
2022/03/13 09:21:31;;;;;;;16.58;12.27;;;;;;;;;;5009464;28;20041;-77
2022/03/13 09:23:57;;;;;;;18.55;11.75;;;;;;;;;;5008803;28;20063;-76
2022/03/13 09:26:24;;;;;;;17.17;11.93;;;;;;;;;;5009491;28;20041;-78
2022/03/13 09:28:50;;;;;;;19.40;12.13;;;;;;;;;;5008698;28;20494;-76
2022/03/13 09:31:16;;;;;;;15.77;11.57;;;;;;;;;;5009270;28;20029;-74
2022/03/13 09:33:42;;;;;;;17.00;12.02;;;;;;;;;;5027195;28;20098;-76
2022/03/13 09:36:08;;;;;;;20.13;12.38;;;;;;;;;;4993374;28;20479;-76
2022/03/13 09:38:34;;;;;;;18.23;12.73;;;;;;;;;;4993100;28;20041;-75
2022/03/13 09:41:00;;;;;;;18.30;12.18;;;;;;;;;;5009288;28;20045;-75
2022/03/13 09:43:27;;;;;;;19.70;12.10;;;;;;;;;;5008958;28;20094;-75
2022/03/13 09:45:53;;;;;;;19.02;11.95;;;;;;;;;;5008752;28;20124;-76
2022/03/13 09:48:21;;;;;;;19.55;12.73;;;;;;;;;;5008578;28;20045;-76
2022/03/13 09:50:47;;;;;;;18.40;12.57;;;;;;;;;;5008901;28;20053;-76
2022/03/13 09:53:14;;;;;;;18.02;12.40;;;;;;;;;;5008945;28;20064;-76
2022/03/13 09:55:40;;;;;;;19.38;13.07;;;;;;;;;;5027280;28;20382;-77
2022/03/13 09:58:08;;;;;;;17.05;12.02;;;;;;;;;;4990532;28;20069;-77
2022/03/13 10:00:36;;;;;;;20.30;13.02;;;;;;;;;;5009860;28;20485;-75
2022/03/13 10:03:05;;;;;;;17.52;13.13;;;;;;;;;;5009247;28;20045;-77
2022/03/13 10:05:40;;;;;;;17.35;12.18;;;;;;;;;;5026539;28;20073;-75
2022/03/13 10:08:06;;;;;;;20.08;12.70;;;;;;;;;;5026026;28;20139;-76
2022/03/13 10:10:49;;;;;;;17.83;12.90;;;;;;;;;;4993069;28;20065;-77
2022/03/13 10:13:33;;;;;;;18.05;12.57;;;;;;;;;;5008975;28;20041;-76
2022/03/13 10:15:59;;;;;;;18.10;12.60;;;;;;;;;;5025608;28;20033;-77
2022/03/13 10:18:27;;;;;;;17.70;12.65;;;;;;;;;;5008760;28;20064;-76
2022/03/13 10:20:54;;;;;;;16.70;12.50;;;;;;;;;;5008703;28;20043;-77
2022/03/13 10:23:21;;;;;;;18.63;12.73;;;;;;;;;;5008922;28;20078;-76
2022/03/13 10:25:48;;;;;;;16.48;12.38;;;;;;;;;;5009043;28;20060;-77
2022/03/13 10:28:20;;;;;;;16.23;12.57;;;;;;;;;;5006565;28;20049;-76
2022/03/13 10:30:48;;;;;;;19.48;12.73;;;;;;;;;;5030031;28;20056;-77
2022/03/13 10:33:14;;;;;;;16.67;12.82;;;;;;;;;;5029908;28;20090;-76
2022/03/13 10:35:41;;;;;;;19.35;12.75;;;;;;;;;;5012310;28;20129;-76
2022/03/13 10:38:17;;;;;;;17.60;12.77;;;;;;;;;;5012234;28;20072;-76
2022/03/13 10:40:45;;;;;;;16.58;12.70;;;;;;;;;;5012323;28;20117;-76
2022/03/13 10:43:18;;;;;;;18.52;13.05;;;;;;;;;;5011834;28;20397;-75
2022/03/13 10:45:53;;;;;;;17.45;13.43;;;;;;;;;;5029413;28;20049;-76
2022/03/13 10:48:23;;;;;;;16.65;13.02;;;;;;;;;;5010982;28;20054;-75
2022/03/13 10:50:52;;;;;;;21.95;12.50;;;;;;;;;;5011057;28;20038;-75
2022/03/13 10:53:22;;;;;;;20.55;13.30;;;;;;;;;;4995307;28;20036;-76
2022/03/13 10:56:07;;;;;;;17.10;13.00;;;;;;;;;;5011488;28;20041;-75
2022/03/13 10:58:35;;;;;;;18.85;13.32;;;;;;;;;;5012189;28;20056;-74
2022/03/13 11:01:04;;;;;;;18.05;11.93;;;;;;;;;;5029069;28;20540;-74
2022/03/13 11:03:31;;;;;;;17.85;13.07;;;;;;;;;;4995802;28;20498;-76
2022/03/13 11:05:57;;;;;;;18.83;13.02;;;;;;;;;;5011247;28;20440;-75
2022/03/13 11:08:24;;;;;;;19.85;12.23;;;;;;;;;;5028602;28;20037;-75
2022/03/13 11:10:50;;;;;;;18.10;12.23;;;;;;;;;;5010867;28;20050;-74
2022/03/13 11:13:18;;;;;;;17.98;13.10;;;;;;;;;;5011276;28;20038;-74
2022/03/13 11:15:45;;;;;;;17.23;12.95;;;;;;;;;;4992631;28;20124;-75
2022/03/13 11:18:11;;;;;;;18.45;12.82;;;;;;;;;;5011017;28;20045;-74
2022/03/13 11:20:40;;;;;;;19.23;13.10;;;;;;;;;;5011681;28;20406;-76
2022/03/13 11:23:08;;;;;;;19.55;12.93;;;;;;;;;;5028732;28;20040;-75
2022/03/13 11:25:36;;;;;;;18.85;12.73;;;;;;;;;;5011534;28;20041;-76
2022/03/13 11:28:02;;;;;;;18.50;12.88;;;;;;;;;;5028862;28;20510;-76
2022/03/13 11:30:34;;;;;;;18.17;12.75;;;;;;;;;;4994767;28;20094;-76
2022/03/13 11:33:02;;;;;;;19.63;12.90;;;;;;;;;;5011225;28;20034;-76
2022/03/13 11:35:30;;;;;;;18.30;12.95;;;;;;;;;;5010817;28;20038;-75
2022/03/13 11:38:17;;;;;;;17.60;12.73;;;;;;;;;;5011239;28;20056;-76
2022/03/13 11:40:43;;;;;;;20.23;13.73;;;;;;;;;;5008339;28;20037;-76
2022/03/13 11:43:14;;;;;;;18.00;12.88;;;;;;;;;;4994822;28;20641;-75
2022/03/13 11:45:41;;;;;;;20.02;12.75;;;;;;;;;;5011212;28;20045;-75
2022/03/13 11:48:09;;;;;;;18.63;12.57;;;;;;;;;;5010576;28;20538;-74
2022/03/13 11:50:51;;;;;;;19.38;12.52;;;;;;;;;;5027905;28;20506;-74
2022/03/13 11:53:27;;;;;;;19.58;12.82;;;;;;;;;;5010400;28;20094;-75
2022/03/13 11:56:02;;;;;;;18.48;12.60;;;;;;;;;;4978229;28;20166;-74
2022/03/13 11:58:44;;;;;;;17.05;12.02;;;;;;;;;;5010900;28;20053;-74
2022/03/13 12:01:32;;;;;;;19.13;12.63;;;;;;;;;;5010698;28;20060;-74
2022/03/13 12:04:00;;;;;;;18.13;12.70;;;;;;;;;;5027869;28;20080;-73
2022/03/13 12:06:46;;;;;;;19.65;12.60;;;;;;;;;;5010051;28;20094;-75
2022/03/13 12:09:15;;;;;;;16.20;12.00;;;;;;;;;;5010643;28;20084;-76
2022/03/13 12:11:42;;;;;;;17.98;12.23;;;;;;;;;;5028460;28;21600;-76
2022/03/13 12:14:09;;;;;;;16.83;12.07;;;;;;;;;;5027900;28;20052;-76
2022/03/13 12:16:39;;;;;;;16.42;11.82;;;;;;;;;;5010474;28;20046;-77
2022/03/13 12:19:05;;;;;;;15.27;11.25;;;;;;;;;;5010246;28;20040;-75
2022/03/13 12:21:32;;;;;;;15.85;10.93;;;;;;;;;;4994289;28;20037;-76
2022/03/13 12:24:13;;;;;;;16.48;11.02;;;;;;;;;;5009701;28;20133;-75
2022/03/13 12:26:39;;;;;;;15.68;11.38;;;;;;;;;;4992326;28;20080;-76
2022/03/13 12:29:07;;;;;;;16.02;11.38;;;;;;;;;;5010032;28;20082;-75
2022/03/13 12:31:45;;;;;;;16.58;11.93;;;;;;;;;;5010490;28;20140;-75
2022/03/13 12:34:12;;;;;;;17.77;11.43;;;;;;;;;;5027751;28;20044;-75
2022/03/13 12:36:42;;;;;;;16.13;11.90;;;;;;;;;;4994173;28;20552;-75
2022/03/13 12:39:14;;;;;;;15.57;12.13;;;;;;;;;;5010033;28;20490;-75
2022/03/13 12:41:44;;;;;;;16.65;11.68;;;;;;;;;;5028182;28;20394;-75
2022/03/13 12:44:14;;;;;;;14.85;11.40;;;;;;;;;;5027499;28;20052;-75
2022/03/13 12:46:40;;;;;;;16.52;11.43;;;;;;;;;;5010186;28;20049;-75
2022/03/13 12:49:08;;;;;;;15.60;11.50;;;;;;;;;;4993638;28;20042;-75
2022/03/13 12:51:49;;;;;;;16.95;11.98;;;;;;;;;;5010048;28;20053;-74
2022/03/13 12:54:15;;;;;;;17.92;11.57;;;;;;;;;;5027928;28;20076;-75
2022/03/13 12:56:47;;;;;;;17.10;11.70;;;;;;;;;;5010419;28;20041;-74
2022/03/13 12:59:23;;;;;;;16.10;11.40;;;;;;;;;;4993573;28;20033;-75
2022/03/13 13:02:04;;;;;;;14.68;10.35;;;;;;;;;;5010148;28;20040;-74
2022/03/13 13:04:34;;;;;;;20.50;11.13;;;;;;;;;;5009697;28;20042;-76
2022/03/13 13:07:01;;;;;;;16.48;10.65;;;;;;;;;;5009618;28;20072;-75
2022/03/13 13:09:28;;;;;;;15.13;10.80;;;;;;;;;;5009464;28;20041;-74
2022/03/13 13:11:55;;;;;;;17.77;10.73;;;;;;;;;;5022706;28;20060;-75
2022/03/13 13:14:28;;;;;;;18.83;10.50;;;;;;;;;;5024819;28;20387;-75
2022/03/13 13:16:55;;;;;;;16.30;10.63;;;;;;;;;;4991659;28;20041;-73
2022/03/13 13:19:21;;;;;;;17.63;11.35;;;;;;;;;;5009654;28;20052;-74
2022/03/13 13:21:58;;;;;;;17.08;11.00;;;;;;;;;;4993116;28;20045;-74
2022/03/13 13:24:35;;;;;;;17.23;11.93;;;;;;;;;;5009198;28;20041;-74
2022/03/13 13:27:02;;;;;;;17.55;11.05;;;;;;;;;;5008960;28;20033;-73
2022/03/13 13:29:32;;;;;;;17.45;10.98;;;;;;;;;;5009768;28;20041;-75
2022/03/13 13:32:25;;;;;;;19.45;11.93;;;;;;;;;;5009458;28;20052;-74
2022/03/13 13:35:03;;;;;;;17.75;11.13;;;;;;;;;;5026696;28;20099;-75
2022/03/13 13:37:29;;;;;;;18.33;10.15;;;;;;;;;;5009681;28;20066;-76
2022/03/13 13:40:07;;;;;;;16.13;11.05;;;;;;;;;;4992879;28;20053;-75
2022/03/13 13:42:35;;;;;;;14.32;10.10;;;;;;;;;;5027171;28;20036;-75
2022/03/13 13:45:02;;;;;;;14.60;9.43;;;;;;;;;;5026904;28;20033;-76
2022/03/13 13:47:29;;;;;;;16.83;9.68;;;;;;;;;;5058659;28;20131;-74
2022/03/13 13:49:55;;;;;;;14.77;9.43;;;;;;;;;;5084370;28;20101;-75
2022/03/13 13:52:32;;;;;;;15.18;10.35;;;;;;;;;;5083861;28;20040;-76
2022/03/13 13:54:58;;;;;;;18.63;10.68;;;;;;;;;;5087637;28;20040;-75
2022/03/13 13:57:25;;;;;;;15.25;10.55;;;;;;;;;;5089191;28;20086;-76
2022/03/13 13:59:51;;;;;;;16.52;10.07;;;;;;;;;;5086932;28;20389;-74
2022/03/13 14:02:19;;;;;;;17.92;10.90;;;;;;;;;;5086526;28;20435;-74
2022/03/13 14:04:48;;;;;;;17.17;11.23;;;;;;;;;;5088306;28;20048;-75
2022/03/13 14:07:14;;;;;;;19.05;12.00;;;;;;;;;;5089844;28;20048;-75
2022/03/13 14:09:41;;;;;;;19.17;11.40;;;;;;;;;;5092729;28;20504;-75
2022/03/13 14:12:08;;;;;;;14.95;9.38;;;;;;;;;;5089470;28;20040;-75
2022/03/13 14:14:34;;;;;;;16.10;10.75;;;;;;;;;;5089341;28;20043;-76
2022/03/13 14:17:01;;;;;;;15.00;9.50;;;;;;;;;;5091301;28;20073;-74
2022/03/13 14:19:28;;;;;;;14.63;10.10;;;;;;;;;;5089976;28;20040;-74